Time;durP1;ratioP1;P1;durP2;ratioP2;P2;SDS_P1;SDS_P2;PMS_P1;PMS_P2;Temp;Humidity;BMP_temperature;BMP_pressure;BME280_temperature;BME280_humidity;BME280_pressure;Samples;Min_cycle;Max_cycle;Signal;HPM_P1;HPM_P2
2022/08/22 00:00:49;;;;;;;;;10.00;9.67;;;;;23.20;57.88;100721.51;110948;1258;15186;-48
2022/08/22 00:03:16;;;;;;;;;14.33;14.00;;;;;23.05;58.16;100719.58;111019;1258;14501;-47
2022/08/22 00:05:44;;;;;;;;;7.33;7.33;;;;;23.00;58.31;100720.77;111024;1258;14945;-47
2022/08/22 00:08:11;;;;;;;;;11.33;11.33;;;;;23.12;58.10;100715.41;111059;1257;10467;-48
2022/08/22 00:10:39;;;;;;;;;9.67;9.33;;;;;22.98;58.23;100715.33;111039;1258;13114;-48
2022/08/22 00:13:06;;;;;;;;;9.33;9.33;;;;;22.99;58.24;100713.74;111044;1258;14542;-48
2022/08/22 00:15:34;;;;;;;;;12.00;11.00;;;;;23.08;58.14;100714.67;110974;1257;14032;-48
2022/08/22 00:18:02;;;;;;;;;10.67;10.67;;;;;23.08;57.97;100719.72;111031;1258;14729;-48
2022/08/22 00:20:29;;;;;;;;;10.33;10.33;;;;;22.90;58.30;100724.55;111003;1258;14578;-49
2022/08/22 00:22:56;;;;;;;;;12.33;11.67;;;;;22.68;58.86;100728.49;111076;1257;13179;-48
2022/08/22 00:25:24;;;;;;;;;8.67;8.67;;;;;22.75;58.90;100728.58;110985;1256;13835;-44
2022/08/22 00:27:51;;;;;;;;;8.00;8.00;;;;;22.86;58.72;100728.69;111010;1258;13032;-48
2022/08/22 00:30:19;;;;;;;;;9.50;8.00;;;;;22.89;58.67;100731.06;110972;1258;13112;-50
2022/08/22 00:32:46;;;;;;;;;9.33;7.67;;;;;23.09;58.26;100728.12;110878;1258;14374;-47
2022/08/22 00:35:13;;;;;;;;;6.33;6.33;;;;;23.01;58.21;100725.34;111020;1258;13023;-47
2022/08/22 00:37:41;;;;;;;;;6.67;6.00;;;;;22.93;58.41;100724.76;110947;1258;13185;-50
2022/08/22 00:40:08;;;;;;;;;5.00;5.00;;;;;22.93;58.48;100730.35;110823;1258;14224;-47
2022/08/22 00:42:36;;;;;;;;;7.67;6.33;;;;;22.96;58.42;100728.89;110757;1258;14698;-48
2022/08/22 00:45:04;;;;;;;;;7.00;7.00;;;;;22.85;58.69;100734.48;111033;1258;14960;-47
2022/08/22 00:47:31;;;;;;;;;5.67;5.67;;;;;22.85;58.85;100733.90;111071;1258;14873;-48
2022/08/22 00:49:58;;;;;;;;;5.67;5.67;;;;;23.05;58.56;100733.91;111053;1258;13233;-47
2022/08/22 00:52:26;;;;;;;;;9.50;9.50;;;;;23.22;58.09;100735.66;111009;1259;14646;-47
2022/08/22 00:54:53;;;;;;;;;9.33;9.33;;;;;23.31;57.93;100737.98;111053;1258;14200;-48
2022/08/22 00:57:21;;;;;;;;;13.00;13.00;;;;;23.35;57.79;100738.77;111018;1258;13185;-48
2022/08/22 00:59:48;;;;;;;;;10.33;8.67;;;;;23.16;57.92;100738.54;110995;1258;13855;-48
2022/08/22 01:02:15;;;;;;;;;10.67;10.00;;;;;23.00;58.54;100741.20;111055;1257;13155;-51
2022/08/22 01:04:43;;;;;;;;;11.67;11.00;;;;;23.15;58.37;100739.11;111037;1256;13207;-48
2022/08/22 01:07:10;;;;;;;;;8.67;8.67;;;;;23.22;58.24;100739.70;111027;1257;14437;-48
2022/08/22 01:09:37;;;;;;;;;7.00;6.00;;;;;23.30;58.06;100735.95;110983;1258;15048;-52
2022/08/22 01:12:05;;;;;;;;;11.00;8.33;;;;;23.31;57.98;100737.48;110956;1259;15078;-46
2022/08/22 01:14:32;;;;;;;;;8.00;7.00;;;;;23.25;58.12;100740.19;110914;1258;15008;-46
2022/08/22 01:17:00;;;;;;;;;8.00;8.00;;;;;23.23;58.23;100744.42;110836;1258;13045;-46
2022/08/22 01:19:27;;;;;;;;;6.67;6.00;;;;;23.14;58.51;100744.98;110940;1258;14586;-47
2022/08/22 01:21:55;;;;;;;;;6.67;6.67;;;;;23.09;58.63;100746.41;111039;1258;14430;-47
2022/08/22 01:24:23;;;;;;;;;8.00;8.00;;;;;23.16;58.63;100748.80;111022;1258;14807;-48
2022/08/22 01:26:50;;;;;;;;;9.00;9.00;;;;;23.20;58.52;100747.20;111031;1258;14483;-47
2022/08/22 01:29:18;;;;;;;;;7.00;6.33;;;;;23.30;58.44;100748.16;111000;1258;14834;-51
2022/08/22 01:31:45;;;;;;;;;4.00;4.00;;;;;23.32;58.26;100740.48;111057;1258;13003;-51
2022/08/22 01:34:12;;;;;;;;;7.00;7.00;;;;;23.21;58.37;100741.82;110981;1258;14165;-48
2022/08/22 01:36:40;;;;;;;;;6.00;6.00;;;;;23.18;58.56;100742.17;110701;1259;13558;-48
2022/08/22 01:39:07;;;;;;;;;7.00;7.00;;;;;23.13;58.71;100749.53;111051;1258;14640;-48
2022/08/22 01:41:35;;;;;;;;;7.00;6.00;;;;;23.16;58.72;100748.30;111042;1256;13913;-51
2022/08/22 01:44:02;;;;;;;;;7.00;7.00;;;;;23.12;58.74;100753.88;111038;1258;17638;-47
2022/08/22 01:46:30;;;;;;;;;6.00;6.00;;;;;23.21;58.57;100758.45;111017;1258;14805;-48
2022/08/22 01:48:57;;;;;;;;;6.33;6.33;;;;;23.24;58.43;100759.09;111038;1258;14457;-47
2022/08/22 01:51:24;;;;;;;;;5.00;5.00;;;;;23.13;58.64;100756.98;110999;1258;14860;-48
2022/08/22 01:53:52;;;;;;;;;4.33;4.33;;;;;23.02;58.91;100757.89;111026;1258;15310;-47
2022/08/22 01:56:19;;;;;;;;;6.00;6.00;;;;;23.11;58.82;100758.20;111048;1258;14372;-48
2022/08/22 01:58:46;;;;;;;;;6.67;6.00;;;;;23.16;58.73;100755.95;111057;1259;13086;-47
2022/08/22 02:01:14;;;;;;;;;6.00;5.67;;;;;23.25;58.47;100750.09;110843;1259;14446;-46
2022/08/22 02:03:42;;;;;;;;;6.67;5.33;;;;;23.28;58.40;100749.52;111010;1257;14499;-48
2022/08/22 02:06:10;;;;;;;;;6.00;5.00;;;;;23.33;58.26;100745.58;111054;1258;14933;-47
2022/08/22 02:08:37;;;;;;;;;4.33;4.33;;;;;23.28;58.37;100743.09;110991;1258;14696;-47
2022/08/22 02:11:04;;;;;;;;;6.00;6.00;;;;;23.22;58.55;100741.55;111057;1257;12686;-48
2022/08/22 02:13:32;;;;;;;;;5.00;5.00;;;;;23.30;58.49;100744.37;111030;1258;14817;-47
2022/08/22 02:15:59;;;;;;;;;5.00;4.00;;;;;23.26;58.43;100747.06;111022;1258;14928;-47
2022/08/22 02:18:26;;;;;;;;;3.33;3.33;;;;;23.25;58.47;100749.20;111017;1257;13907;-47
2022/08/22 02:20:54;;;;;;;;;6.00;6.00;;;;;23.22;58.57;100750.42;111016;1256;13072;-48
2022/08/22 02:23:21;;;;;;;;;4.00;4.00;;;;;23.08;58.77;100753.59;111037;1257;14043;-49
2022/08/22 02:25:49;;;;;;;;;6.00;6.00;;;;;23.02;59.12;100755.15;111027;1258;13143;-46
2022/08/22 02:28:16;;;;;;;;;6.67;6.00;;;;;23.19;58.86;100752.87;111006;1257;13149;-46
2022/08/22 02:30:44;;;;;;;;;4.00;4.00;;;;;23.11;58.72;100752.88;111010;1257;14210;-47
2022/08/22 02:33:11;;;;;;;;;5.00;5.00;;;;;23.01;59.02;100753.54;111011;1258;14037;-48
2022/08/22 02:35:38;;;;;;;;;5.00;5.00;;;;;23.01;59.09;100750.66;111018;1257;14188;-48
2022/08/22 02:38:06;;;;;;;;;5.00;5.00;;;;;23.14;58.80;100749.91;111036;1257;12212;-47
2022/08/22 02:40:33;;;;;;;;;6.00;6.00;;;;;23.16;58.77;100748.02;110974;1258;13705;-48
2022/08/22 02:43:01;;;;;;;;;5.67;5.00;;;;;23.15;58.76;100747.27;110884;1258;13062;-44
2022/08/22 02:45:28;;;;;;;;;5.00;5.00;;;;;23.17;58.69;100743.91;111033;1258;13713;-48
2022/08/22 02:47:56;;;;;;;;;6.00;5.00;;;;;23.11;58.77;100747.39;111060;1257;13064;-45
2022/08/22 02:50:23;;;;;;;;;6.00;5.00;;;;;23.16;58.77;100746.11;111032;1257;14046;-45
2022/08/22 02:52:51;;;;;;;;;4.00;4.00;;;;;23.26;58.51;100749.51;111038;1258;12813;-48
2022/08/22 02:55:18;;;;;;;;;6.00;6.00;;;;;23.28;58.49;100748.38;110971;1258;14134;-47
2022/08/22 02:57:46;;;;;;;;;6.00;6.00;;;;;23.23;58.56;100745.19;111018;1257;14411;-48
2022/08/22 03:00:14;;;;;;;;;6.00;5.00;;;;;23.26;58.49;100749.08;111012;1258;13449;-47
2022/08/22 03:02:43;;;;;;;;;4.33;3.33;;;;;23.26;58.44;100749.92;111042;1258;25612;-47
2022/08/22 03:05:10;;;;;;;;;4.00;4.00;;;;;23.21;58.56;100748.15;111091;1257;12914;-49
2022/08/22 03:07:37;;;;;;;;;6.00;6.00;;;;;23.15;58.71;100744.46;111048;1258;13727;-48
2022/08/22 03:10:05;;;;;;;;;4.50;4.00;;;;;23.17;58.76;100748.89;111027;1258;14534;-48
2022/08/22 03:12:32;;;;;;;;;4.00;4.00;;;;;23.19;58.70;100749.86;111042;1257;14007;-48
2022/08/22 03:14:59;;;;;;;;;6.50;5.50;;;;;23.15;58.78;100755.45;111067;1258;13111;-48
2022/08/22 03:17:27;;;;;;;;;8.00;7.50;;;;;23.15;58.80;100756.52;110936;1258;12886;-47
2022/08/22 03:19:54;;;;;;;;;7.67;7.67;;;;;23.11;58.91;100756.73;111068;1257;13030;-48
2022/08/22 03:22:22;;;;;;;;;11.00;10.00;;;;;23.06;59.07;100760.59;110992;1259;14501;-48
2022/08/22 03:24:49;;;;;;;;;8.67;7.33;;;;;23.14;58.96;100759.21;110962;1258;14893;-47
2022/08/22 03:27:17;;;;;;;;;12.00;11.00;;;;;23.22;58.80;100763.55;111017;1257;14972;-49
2022/08/22 03:29:45;;;;;;;;;12.00;11.00;;;;;23.26;58.67;100766.08;111017;1258;13340;-50
2022/08/22 03:32:12;;;;;;;;;12.50;11.00;;;;;23.27;58.59;100763.61;111109;1257;10400;-48
2022/08/22 03:34:40;;;;;;;;;7.00;7.00;;;;;23.22;58.68;100763.21;111010;1258;13881;-48
2022/08/22 03:37:07;;;;;;;;;8.67;7.67;;;;;23.23;58.82;100768.33;111024;1258;12843;-48
2022/08/22 03:39:35;;;;;;;;;8.67;7.67;;;;;23.26;58.73;100768.48;111031;1256;13133;-47
2022/08/22 03:42:02;;;;;;;;;8.00;7.00;;;;;23.21;58.87;100769.35;111050;1258;13474;-46
2022/08/22 03:44:29;;;;;;;;;7.00;6.33;;;;;23.23;58.87;100769.52;111046;1258;13053;-46
2022/08/22 03:46:57;;;;;;;;;8.00;8.00;;;;;23.24;58.82;100773.75;111069;1257;13054;-48
2022/08/22 03:49:24;;;;;;;;;6.00;4.50;;;;;23.16;58.93;100772.80;110959;1258;13280;-46
2022/08/22 03:51:51;;;;;;;;;9.33;8.00;;;;;23.18;59.03;100775.54;111020;1257;13275;-46
2022/08/22 03:54:19;;;;;;;;;8.00;7.50;;;;;23.20;58.95;100776.19;110978;1258;13325;-48
2022/08/22 03:56:46;;;;;;;;;8.00;7.33;;;;;23.15;59.11;100778.23;110985;1258;13252;-49
2022/08/22 03:59:14;;;;;;;;;7.33;7.33;;;;;23.17;59.06;100777.11;111030;1258;12938;-48
2022/08/22 04:01:41;;;;;;;;;7.67;7.00;;;;;23.20;58.97;100776.05;111047;1258;13305;-48
2022/08/22 04:04:08;;;;;;;;;6.00;6.00;;;;;23.17;59.03;100778.70;111027;1258;13668;-47
2022/08/22 04:06:36;;;;;;;;;6.33;6.00;;;;;23.18;59.07;100776.23;111011;1258;13533;-48
2022/08/22 04:09:04;;;;;;;;;6.67;6.00;;;;;22.98;59.36;100781.46;111002;1257;13654;-49
2022/08/22 04:11:31;;;;;;;;;6.00;5.00;;;;;22.93;59.80;100781.73;110957;1257;13239;-50
2022/08/22 04:13:58;;;;;;;;;5.00;5.00;;;;;23.17;59.34;100780.02;110950;1258;12690;-48
2022/08/22 04:16:26;;;;;;;;;7.00;7.00;;;;;23.32;58.94;100782.38;110982;1257;13145;-48
2022/08/22 04:18:53;;;;;;;;;6.00;6.00;;;;;23.34;58.84;100784.67;111040;1258;13181;-47
2022/08/22 04:21:21;;;;;;;;;7.00;6.67;;;;;23.39;58.69;100782.42;111011;1258;13707;-46
2022/08/22 04:23:48;;;;;;;;;7.00;7.00;;;;;23.42;58.62;100778.75;110990;1258;13197;-47
2022/08/22 04:26:16;;;;;;;;;6.00;6.00;;;;;23.47;58.46;100778.27;111069;1258;13082;-48
2022/08/22 04:28:43;;;;;;;;;6.00;6.00;;;;;23.39;58.59;100778.93;111034;1257;13485;-48
2022/08/22 04:31:11;;;;;;;;;6.00;6.00;;;;;23.30;58.82;100777.33;111021;1258;21651;-48
2022/08/22 04:33:38;;;;;;;;;4.00;4.00;;;;;23.40;58.63;100784.55;111024;1259;13149;-48
2022/08/22 04:36:06;;;;;;;;;7.50;6.50;;;;;23.41;58.55;100785.15;111041;1256;13326;-49
2022/08/22 04:38:33;;;;;;;;;6.00;6.00;;;;;23.50;58.37;100780.77;111062;1258;13630;-48
2022/08/22 04:41:01;;;;;;;;;6.00;6.00;;;;;23.53;58.19;100780.63;111075;1258;12975;-49
2022/08/22 04:43:28;;;;;;;;;7.33;6.33;;;;;23.50;58.22;100778.84;111043;1257;13563;-47
2022/08/22 04:45:56;;;;;;;;;5.67;5.67;;;;;23.39;58.39;100779.27;111033;1258;13209;-47
2022/08/22 04:48:23;;;;;;;;;4.00;4.00;;;;;23.45;58.38;100784.55;110931;1257;13474;-47
2022/08/22 04:50:51;;;;;;;;;3.00;3.00;;;;;23.52;58.23;100784.01;110984;1258;13144;-52
2022/08/22 04:53:18;;;;;;;;;5.00;4.33;;;;;23.55;58.14;100789.84;110933;1258;13021;-47
2022/08/22 04:55:45;;;;;;;;;6.00;4.00;;;;;23.57;58.15;100784.90;111009;1258;13713;-48
2022/08/22 04:58:13;;;;;;;;;6.00;6.00;;;;;23.55;58.08;100786.89;111025;1259;13421;-48
2022/08/22 05:00:40;;;;;;;;;5.33;4.00;;;;;23.46;58.36;100790.45;110885;1257;13013;-46
2022/08/22 05:03:08;;;;;;;;;4.00;4.00;;;;;23.35;58.63;100791.89;110992;1257;13213;-47
2022/08/22 05:05:35;;;;;;;;;6.67;6.00;;;;;23.38;58.78;100794.88;110961;1258;12944;-48
2022/08/22 05:08:02;;;;;;;;;4.00;4.00;;;;;23.44;58.67;100795.06;111034;1258;13372;-49
2022/08/22 05:10:32;;;;;;;;;4.67;4.67;;;;;23.42;58.76;100799.29;110958;1258;14661;-48
2022/08/22 05:13:00;;;;;;;;;7.67;6.67;;;;;23.41;58.75;100799.99;110951;1258;15267;-47
2022/08/22 05:15:27;;;;;;;;;6.00;4.00;;;;;23.41;58.76;100800.55;110973;1258;14214;-48
2022/08/22 05:17:55;;;;;;;;;8.25;7.00;;;;;23.42;58.83;100804.64;110226;1258;956197;-48
2022/08/22 05:20:22;;;;;;;;;9.00;8.33;;;;;23.48;58.71;100812.62;111020;1258;11242;-47
2022/08/22 05:22:49;;;;;;;;;12.00;11.67;;;;;23.50;58.70;100810.38;110986;1258;12931;-45
2022/08/22 05:25:17;;;;;;;;;11.00;9.00;;;;;23.37;59.02;100809.59;110923;1258;15009;-47
2022/08/22 05:27:44;;;;;;;;;11.00;10.00;;;;;23.26;59.48;100815.80;110945;1259;14402;-48
2022/08/22 05:30:12;;;;;;;;;11.00;8.33;;;;;23.11;60.09;100817.77;110905;1258;14294;-48
2022/08/22 05:32:39;;;;;;;;;8.33;8.00;;;;;23.09;60.55;100815.98;110981;1258;15378;-47
2022/08/22 05:35:07;;;;;;;;;9.00;8.00;;;;;23.13;60.85;100818.55;110991;1258;12980;-48
2022/08/22 05:37:34;;;;;;;;;7.67;7.67;;;;;23.11;61.32;100819.23;110998;1258;16744;-47
2022/08/22 05:40:02;;;;;;;;;7.00;7.00;;;;;23.13;61.65;100820.20;111001;1258;13863;-46
2022/08/22 05:42:30;;;;;;;;;10.00;9.33;;;;;23.03;62.08;100820.79;110936;1258;16591;-48
2022/08/22 05:44:57;;;;;;;;;7.00;7.00;;;;;23.05;62.18;100822.02;110912;1258;14775;-49
2022/08/22 05:47:25;;;;;;;;;11.00;8.00;;;;;23.03;62.34;100823.52;110899;1258;14481;-51
2022/08/22 05:49:53;;;;;;;;;10.00;10.00;;;;;23.09;62.25;100825.44;110756;1258;13121;-46
2022/08/22 05:52:20;;;;;;;;;8.00;7.00;;;;;23.01;62.50;100825.05;110966;1259;14504;-48
2022/08/22 05:54:47;;;;;;;;;7.00;6.00;;;;;22.99;62.60;100821.35;110946;1258;13638;-47
2022/08/22 05:57:15;;;;;;;;;6.33;6.33;;;;;22.95;62.79;100822.14;110871;1257;15364;-46
2022/08/22 05:59:42;;;;;;;;;6.00;6.00;;;;;22.86;63.09;100823.23;110889;1258;15788;-47
2022/08/22 06:02:09;;;;;;;;;6.33;6.33;;;;;22.82;63.37;100821.95;110928;1258;13396;-50
2022/08/22 06:04:37;;;;;;;;;7.00;7.00;;;;;22.86;63.44;100822.80;110945;1258;14845;-47
2022/08/22 06:07:05;;;;;;;;;7.33;7.00;;;;;22.95;63.27;100821.27;110993;1259;14465;-49
2022/08/22 06:09:32;;;;;;;;;5.67;5.00;;;;;22.98;63.20;100822.86;110945;1258;14329;-48
2022/08/22 06:11:59;;;;;;;;;6.00;6.00;;;;;22.89;63.41;100818.87;111026;1258;14491;-47
2022/08/22 06:14:27;;;;;;;;;7.33;7.00;;;;;22.83;63.69;100822.27;110775;1258;14966;-52
2022/08/22 06:16:55;;;;;;;;;7.33;6.00;;;;;22.84;63.78;100829.31;111016;1258;12677;-48
2022/08/22 06:19:22;;;;;;;;;6.00;6.00;;;;;22.86;63.91;100827.67;110990;1258;13825;-48
2022/08/22 06:21:50;;;;;;;;;8.67;7.00;;;;;22.96;63.86;100827.28;110923;1258;14221;-46
2022/08/22 06:24:17;;;;;;;;;6.00;5.00;;;;;23.03;63.76;100825.91;110990;1258;14112;-48
2022/08/22 06:26:45;;;;;;;;;6.00;5.00;;;;;23.08;63.59;100825.60;110879;1258;14002;-48
2022/08/22 06:29:12;;;;;;;;;6.00;6.00;;;;;22.99;63.79;100822.05;110811;1258;12966;-48
2022/08/22 06:31:40;;;;;;;;;8.00;7.00;;;;;22.92;64.03;100819.61;110791;1259;13973;-48
2022/08/22 06:34:07;;;;;;;;;6.00;5.67;;;;;22.92;64.10;100824.08;110839;1259;12851;-49
2022/08/22 06:36:35;;;;;;;;;8.67;7.00;;;;;22.89;64.18;100822.64;110662;1259;13184;-49
2022/08/22 06:39:02;;;;;;;;;6.00;6.00;;;;;22.92;64.19;100827.47;110907;1258;14253;-47
2022/08/22 06:41:29;;;;;;;;;6.67;6.67;;;;;22.97;64.03;100823.17;111008;1258;15416;-49
2022/08/22 06:43:57;;;;;;;;;6.00;6.00;;;;;22.87;64.34;100821.34;111032;1258;12766;-46
2022/08/22 06:46:24;;;;;;;;;6.00;6.00;;;;;22.96;64.19;100826.27;110999;1258;13758;-47
2022/08/22 06:48:51;;;;;;;;;7.00;7.00;;;;;22.92;64.26;100825.08;110981;1258;14449;-48
2022/08/22 06:51:19;;;;;;;;;10.00;8.00;;;;;23.08;63.87;100830.42;110921;1258;14028;-49
2022/08/22 06:53:46;;;;;;;;;8.67;7.33;;;;;23.13;63.49;100835.76;110992;1258;14159;-47
2022/08/22 06:56:14;;;;;;;;;8.00;7.67;;;;;23.14;63.22;100834.17;111063;1258;12787;-47
2022/08/22 06:58:41;;;;;;;;;7.00;6.33;;;;;23.07;63.23;100838.20;110901;1258;14393;-48
2022/08/22 07:01:09;;;;;;;;;7.00;6.00;;;;;23.06;63.21;100839.36;110814;1258;12572;-48
2022/08/22 07:03:36;;;;;;;;;6.00;6.00;;;;;22.91;63.04;100836.49;110813;1258;15083;-48
2022/08/22 07:06:03;;;;;;;;;5.67;5.33;;;;;22.75;63.24;100840.61;110925;1258;14348;-45
2022/08/22 07:08:31;;;;;;;;;6.50;6.50;;;;;22.38;63.75;100841.33;111055;1257;15195;-47
2022/08/22 07:10:58;;;;;;;;;3.67;3.67;;;;;22.55;63.66;100839.30;111048;1258;13077;-52
2022/08/22 07:13:26;;;;;;;;;5.00;5.00;;;;;22.71;63.00;100836.02;110939;1258;14391;-46
2022/08/22 07:15:54;;;;;;;;;5.00;5.00;;;;;22.26;63.99;100836.98;110970;1258;15023;-48
2022/08/22 07:18:22;;;;;;;;;7.67;6.00;;;;;22.25;64.23;100841.41;110725;1259;13022;-47
2022/08/22 07:20:49;;;;;;;;;5.00;5.00;;;;;22.42;63.87;100838.94;111000;1258;13034;-48
2022/08/22 07:23:16;;;;;;;;;5.00;3.67;;;;;22.44;63.88;100847.11;111022;1258;18075;-48
2022/08/22 07:25:44;;;;;;;;;7.00;7.00;;;;;22.62;63.46;100846.15;110925;1257;13250;-48
2022/08/22 07:28:12;;;;;;;;;5.00;5.00;;;;;22.72;63.30;100849.42;111000;1257;13582;-48
2022/08/22 07:30:39;;;;;;;;;7.00;5.67;;;;;22.78;63.21;100855.34;111003;1258;13899;-49
2022/08/22 07:33:07;;;;;;;;;7.00;6.00;;;;;22.81;63.22;100853.94;111005;1258;13268;-47
2022/08/22 07:35:34;;;;;;;;;6.00;6.00;;;;;22.77;63.50;100852.80;111042;1258;14309;-48
2022/08/22 07:38:02;;;;;;;;;6.67;6.67;;;;;22.72;63.84;100858.64;110903;1258;12943;-47
2022/08/22 07:40:30;;;;;;;;;8.00;6.00;;;;;22.66;64.04;100860.83;110891;1257;14152;-49
2022/08/22 07:42:58;;;;;;;;;7.00;6.67;;;;;22.38;64.98;100863.35;111037;1258;16760;-48
2022/08/22 07:45:25;;;;;;;;;5.00;5.00;;;;;22.25;65.97;100870.16;110988;1258;14878;-50
2022/08/22 07:47:52;;;;;;;;;5.00;5.00;;;;;22.23;66.34;100864.08;111014;1257;13834;-48
2022/08/22 07:50:20;;;;;;;;;5.50;5.00;;;;;22.22;66.86;100860.82;111002;1258;12697;-52
2022/08/22 07:52:48;;;;;;;;;6.33;6.00;;;;;22.31;66.87;100864.20;110996;1257;12906;-47
2022/08/22 07:55:15;;;;;;;;;7.00;6.00;;;;;22.25;67.43;100864.17;110983;1257;13221;-49
2022/08/22 07:57:43;;;;;;;;;5.33;5.00;;;;;22.31;67.33;100867.65;110990;1259;14240;-48
2022/08/22 08:00:10;;;;;;;;;5.00;5.00;;;;;22.39;67.07;100869.73;110896;1257;13845;-47
2022/08/22 08:02:37;;;;;;;;;6.33;5.67;;;;;22.61;66.80;100861.08;110914;1259;13474;-46
2022/08/22 08:05:05;;;;;;;;;6.00;6.00;;;;;22.62;66.56;100862.36;110945;1257;12867;-48
2022/08/22 08:07:32;;;;;;;;;5.00;5.00;;;;;22.62;66.44;100859.84;110990;1257;13668;-49
2022/08/22 08:10:00;;;;;;;;;5.67;5.67;;;;;22.68;66.11;100865.55;110908;1258;14922;-47
2022/08/22 08:12:27;;;;;;;;;6.00;6.00;;;;;22.66;65.96;100862.52;110962;1257;14167;-48
2022/08/22 08:14:55;;;;;;;;;5.67;5.67;;;;;22.42;66.53;100859.77;110961;1259;14895;-48
2022/08/22 08:17:23;;;;;;;;;7.00;6.00;;;;;22.40;66.63;100864.14;111017;1258;13177;-47
2022/08/22 08:19:51;;;;;;;;;6.00;5.00;;;;;22.34;66.90;100865.41;111019;1257;14000;-49
2022/08/22 08:22:18;;;;;;;;;5.00;5.00;;;;;22.25;67.40;100867.67;111018;1258;14503;-49
2022/08/22 08:24:46;;;;;;;;;10.00;8.33;;;;;22.41;67.17;100861.34;111033;1257;15023;-47
2022/08/22 08:29:58;;;;;;;;;7.00;7.00;;;;;22.05;68.10;100870.30;110915;1258;14051;-47
2022/08/22 08:32:26;;;;;;;;;8.33;7.00;;;;;22.06;68.10;100871.93;111037;1258;13067;-48
2022/08/22 08:34:53;;;;;;;;;7.00;7.00;;;;;22.07;68.01;100870.10;111013;1258;12304;-49
2022/08/22 08:37:21;;;;;;;;;9.00;7.00;;;;;22.18;67.79;100870.11;111001;1258;14750;-48
2022/08/22 08:39:49;;;;;;;;;6.00;5.00;;;;;22.16;67.45;100874.48;111015;1257;14305;-48
2022/08/22 08:42:16;;;;;;;;;7.00;6.00;;;;;21.91;68.06;100874.51;111011;1259;13496;-46
2022/08/22 08:44:44;;;;;;;;;6.00;5.33;;;;;21.91;68.18;100870.80;110997;1257;14188;-47
2022/08/22 08:47:12;;;;;;;;;6.00;5.00;;;;;21.83;68.31;100869.82;111058;1259;14115;-47
2022/08/22 08:49:39;;;;;;;;;7.00;5.00;;;;;21.96;68.18;100867.02;111021;1258;14901;-49
2022/08/22 08:52:07;;;;;;;;;6.67;6.00;;;;;22.17;67.51;100871.52;111022;1257;15174;-48
2022/08/22 08:54:34;;;;;;;;;5.33;5.00;;;;;22.15;67.41;100870.41;111009;1258;15020;-47
2022/08/22 08:57:02;;;;;;;;;5.00;5.00;;;;;22.25;67.28;100867.13;110962;1258;14087;-46
2022/08/22 08:59:29;;;;;;;;;5.00;5.00;;;;;22.20;67.35;100868.56;110917;1258;14811;-50
2022/08/22 09:01:57;;;;;;;;;5.67;5.67;;;;;22.33;67.02;100864.83;110975;1259;12580;-50
2022/08/22 09:04:24;;;;;;;;;5.00;5.00;;;;;22.48;66.58;100864.83;110982;1258;15005;-45
2022/08/22 09:06:52;;;;;;;;;6.00;6.00;;;;;22.57;66.09;100864.13;111140;1257;14347;-43
2022/08/22 09:09:19;;;;;;;;;6.00;6.00;;;;;22.51;66.12;100860.70;111028;1258;14370;-44
2022/08/22 09:11:47;;;;;;;;;6.00;5.00;;;;;22.37;66.41;100867.12;111025;1258;14917;-47
2022/08/22 09:14:15;;;;;;;;;6.00;6.00;;;;;22.35;66.53;100863.93;111001;1258;12760;-49
2022/08/22 09:16:42;;;;;;;;;5.00;5.00;;;;;22.25;66.72;100864.43;110760;1258;14823;-49
2022/08/22 09:19:10;;;;;;;;;5.33;5.00;;;;;22.35;66.72;100869.19;110898;1258;13247;-48
2022/08/22 09:21:37;;;;;;;;;5.00;5.00;;;;;22.24;66.85;100863.95;110901;1258;14915;-44
2022/08/22 09:24:05;;;;;;;;;6.00;5.00;;;;;22.07;67.00;100870.30;110967;1258;14265;-48
2022/08/22 09:26:32;;;;;;;;;6.67;6.00;;;;;22.20;67.04;100868.90;110975;1257;14857;-45
2022/08/22 09:29:00;;;;;;;;;6.67;6.67;;;;;22.24;66.71;100866.23;110994;1258;12662;-47
2022/08/22 09:31:27;;;;;;;;;6.33;3.67;;;;;22.23;67.01;100870.38;110811;1258;13148;-46
2022/08/22 09:33:55;;;;;;;;;5.67;5.00;;;;;22.45;66.30;100868.69;110861;1258;14177;-48
2022/08/22 09:36:24;;;;;;;;;6.33;5.33;;;;;22.43;66.07;100868.77;111014;1259;14344;-47
2022/08/22 09:38:52;;;;;;;;;5.00;5.00;;;;;22.66;65.31;100869.91;110998;1257;15332;-46
2022/08/22 09:41:20;;;;;;;;;5.00;5.00;;;;;22.78;64.82;100874.11;111047;1258;12994;-48
2022/08/22 09:43:47;;;;;;;;;5.00;5.00;;;;;22.69;64.85;100872.35;111027;1257;14837;-49
2022/08/22 09:46:15;;;;;;;;;3.67;3.67;;;;;22.62;65.00;100871.30;110970;1258;15219;-52
2022/08/22 09:48:43;;;;;;;;;7.00;5.00;;;;;22.73;64.63;100877.04;110953;1257;14116;-48
2022/08/22 09:51:13;;;;;;;;;5.00;5.00;;;;;22.85;63.77;100877.48;111886;1258;14204;-49
2022/08/22 09:53:41;;;;;;;;;6.33;5.67;;;;;22.89;63.24;100874.48;110802;1258;14937;-47
2022/08/22 09:56:09;;;;;;;;;6.00;6.00;;;;;22.85;63.46;100873.83;111045;1258;12957;-47
2022/08/22 09:58:36;;;;;;;;;6.67;6.67;;;;;22.89;63.51;100872.80;110990;1258;14268;-46
2022/08/22 10:01:08;;;;;;;;;6.33;6.00;;;;;22.89;63.55;100881.21;110974;1258;14405;-47
2022/08/22 10:03:35;;;;;;;;;6.00;6.00;;;;;22.98;63.22;100885.02;110991;1258;14152;-47
2022/08/22 10:06:03;;;;;;;;;5.00;5.00;;;;;22.86;63.50;100884.27;110987;1257;14867;-49
2022/08/22 10:08:31;;;;;;;;;7.00;6.67;;;;;22.99;63.22;100881.88;111030;1258;14706;-52
2022/08/22 10:10:59;;;;;;;;;6.00;6.00;;;;;22.99;63.12;100880.86;111037;1257;12205;-48
2022/08/22 10:13:27;;;;;;;;;5.00;4.33;;;;;22.95;63.22;100882.06;110977;1258;15104;-48
2022/08/22 10:15:55;;;;;;;;;6.00;6.00;;;;;23.03;63.04;100881.63;110920;1258;18068;-46
2022/08/22 10:18:22;;;;;;;;;6.00;5.00;;;;;22.94;63.27;100879.17;110990;1257;14598;-47
2022/08/22 10:20:50;;;;;;;;;4.33;4.33;;;;;23.08;62.85;100872.95;110976;1258;15123;-48
2022/08/22 10:23:17;;;;;;;;;6.00;6.00;;;;;23.15;62.50;100876.26;110984;1259;12400;-45
2022/08/22 10:25:45;;;;;;;;;7.67;6.00;;;;;23.00;62.93;100878.36;110996;1258;14850;-51
2022/08/22 10:28:13;;;;;;;;;6.67;6.00;;;;;23.04;63.07;100881.55;110969;1258;14564;-48
2022/08/22 10:30:41;;;;;;;;;6.00;6.00;;;;;23.14;62.85;100877.70;110988;1257;15691;-47
2022/08/22 10:33:09;;;;;;;;;6.00;6.00;;;;;23.23;62.70;100875.40;111009;1258;15774;-47
2022/08/22 10:35:36;;;;;;;;;7.00;6.00;;;;;23.16;62.94;100877.27;110994;1258;15428;-49
2022/08/22 10:38:04;;;;;;;;;6.00;6.00;;;;;23.02;63.34;100878.42;110994;1257;12844;-49
2022/08/22 10:40:31;;;;;;;;;3.67;3.67;;;;;23.10;63.32;100877.14;110954;1258;14696;-48
2022/08/22 10:42:59;;;;;;;;;6.67;6.00;;;;;23.16;63.19;100874.91;110960;1258;15509;-50
2022/08/22 10:45:27;;;;;;;;;5.50;5.00;;;;;23.00;63.70;100878.09;111015;1257;16675;-47
2022/08/22 10:47:54;;;;;;;;;7.00;7.00;;;;;23.04;63.74;100878.06;111021;1258;17977;-49
2022/08/22 10:50:22;;;;;;;;;7.67;7.33;;;;;22.84;64.44;100879.02;111073;1257;13008;-46
2022/08/22 10:52:49;;;;;;;;;15.33;12.67;;;;;23.03;64.21;100879.15;110987;1258;14824;-50
2022/08/22 10:55:17;;;;;;;;;20.50;19.50;;;;;23.08;64.02;100875.93;110958;1258;14145;-47
2022/08/22 10:57:44;;;;;;;;;18.67;16.33;;;;;22.94;64.55;100876.23;111006;1259;15112;-49
2022/08/22 11:00:11;;;;;;;;;16.00;15.00;;;;;23.08;64.38;100873.67;110993;1258;16143;-48
2022/08/22 11:02:39;;;;;;;;;19.00;16.33;;;;;23.16;64.28;100869.80;111045;1258;14917;-46
2022/08/22 11:05:06;;;;;;;;;20.00;20.00;;;;;23.08;64.33;100870.05;110937;1257;13218;-48
2022/08/22 11:07:34;;;;;;;;;13.00;12.00;;;;;23.06;64.59;100865.08;111022;1258;14024;-48
2022/08/22 11:10:01;;;;;;;;;10.00;8.00;;;;;22.83;65.23;100868.95;110953;1259;15264;-47
2022/08/22 11:12:29;;;;;;;;;10.00;7.00;;;;;22.61;65.84;100870.50;110915;1258;15178;-48
2022/08/22 11:14:57;;;;;;;;;8.33;7.33;;;;;22.61;65.90;100869.14;111004;1258;14830;-48
2022/08/22 11:17:24;;;;;;;;;10.00;7.33;;;;;22.78;65.69;100865.00;110927;1257;12472;-48